Time;durP1;ratioP1;P1;durP2;ratioP2;P2;SDS_P1;SDS_P2;PMS_P1;PMS_P2;Temp;Humidity;BMP_temperature;BMP_pressure;BME280_temperature;BME280_humidity;BME280_pressure;Samples;Min_cycle;Max_cycle;Signal;HPM_P1;HPM_P2
2023/04/23 00:01:28;;;;;;;;;;;;;;;8.65;98.76;100733.22;5063480;28;19917;-61
2023/04/23 00:03:56;;;;;;;;;;;;;;;8.66;98.58;100726.91;5054890;28;19917;-61
2023/04/23 00:06:22;;;;;;;;;;;;;;;8.67;98.21;100718.03;5055092;28;19981;-60
2023/04/23 00:08:47;;;;;;;;;;;;;;;8.67;98.28;100711.88;5055373;28;20003;-61
2023/04/23 00:11:12;;;;;;;;;;;;;;;8.67;97.91;100722.47;5055582;28;19970;-61
2023/04/23 00:13:38;;;;;;;;;;;;;;;8.66;98.04;100723.44;5057590;28;19925;-60
2023/04/23 00:16:03;;;;;;;;;;;;;;;8.64;98.09;100707.72;5058412;28;19920;-61
2023/04/23 00:18:28;;;;;;;;;;;;;;;8.65;97.82;100712.03;5060770;28;19916;-61
2023/04/23 00:20:54;;;;;;;;;;;;;;;8.64;97.61;100709.53;5055119;28;20433;-61
2023/04/23 00:23:19;;;;;;;;;;;;;;;8.61;97.04;100705.41;5055356;28;19916;-61
2023/04/23 00:25:44;;;;;;;;;;;;;;;8.59;97.20;100701.25;5055811;28;19973;-60
2023/04/23 00:28:09;;;;;;;;;;;;;;;8.57;96.92;100697.94;5057392;28;19924;-60
2023/04/23 00:30:34;;;;;;;;;;;;;;;8.54;96.91;100695.63;5055425;28;19969;-61
2023/04/23 00:33:00;;;;;;;;;;;;;;;8.51;96.96;100699.44;5056042;28;19917;-61
2023/04/23 00:35:25;;;;;;;;;;;;;;;8.51;96.94;100698.59;5054010;28;19917;-61
2023/04/23 00:37:50;;;;;;;;;;;;;;;8.48;96.61;100699.75;5054373;28;19935;-60
2023/04/23 00:40:15;;;;;;;;;;;;;;;8.46;96.87;100696.44;5054714;28;19978;-61
2023/04/23 00:42:41;;;;;;;;;;;;;;;8.44;96.85;100698.41;5055082;28;20051;-60
2023/04/23 00:45:07;;;;;;;;;;;;;;;8.43;96.44;100690.66;5054794;28;20011;-61
2023/04/23 00:47:32;;;;;;;;;;;;;;;8.41;96.38;100688.16;5057972;28;19927;-60
2023/04/23 00:49:58;;;;;;;;;;;;;;;8.38;96.13;100689.31;5059857;28;20020;-61
2023/04/23 00:52:23;;;;;;;;;;;;;;;8.35;96.12;100686.13;5060951;28;20297;-61
2023/04/23 00:54:48;;;;;;;;;;;;;;;8.32;95.91;100687.25;5061839;28;19916;-61
2023/04/23 00:57:14;;;;;;;;;;;;;;;8.32;95.97;100681.13;5060607;28;19921;-61
2023/04/23 00:59:39;;;;;;;;;;;;;;;8.29;96.03;100684.91;5062043;28;19923;-60
2023/04/23 01:02:05;;;;;;;;;;;;;;;8.28;96.36;100677.16;5060874;28;19920;-61
2023/04/23 01:04:31;;;;;;;;;;;;;;;8.24;96.02;100668.69;5059464;28;20376;-61
2023/04/23 01:06:57;;;;;;;;;;;;;;;8.24;95.93;100673.16;5058221;28;20400;-61
2023/04/23 01:09:22;;;;;;;;;;;;;;;8.22;95.88;100672.50;5057167;28;19962;-61
2023/04/23 01:11:49;;;;;;;;;;;;;;;8.23;95.70;100671.50;5065044;28;19917;-61
2023/04/23 01:14:15;;;;;;;;;;;;;;;8.20;95.90;100667.38;5064865;28;20377;-61
2023/04/23 01:16:41;;;;;;;;;;;;;;;8.18;96.15;100664.06;5061489;28;20011;-61
2023/04/23 01:19:07;;;;;;;;;;;;;;;8.16;96.00;100660.75;5061755;28;19917;-61
2023/04/23 01:21:35;;;;;;;;;;;;;;;8.15;96.02;100658.25;5066345;28;20361;-61
2023/04/23 01:24:01;;;;;;;;;;;;;;;8.15;95.65;100651.16;5059061;28;20390;-61
2023/04/23 01:26:27;;;;;;;;;;;;;;;8.15;95.89;100645.88;5062297;28;19929;-61
2023/04/23 01:28:52;;;;;;;;;;;;;;;8.15;95.78;100647.69;5060995;28;20002;-60
2023/04/23 01:31:18;;;;;;;;;;;;;;;8.13;95.86;100655.78;5060398;28;20300;-61
2023/04/23 01:33:43;;;;;;;;;;;;;;;8.12;95.92;100646.19;5064065;28;19916;-61
2023/04/23 01:36:09;;;;;;;;;;;;;;;8.11;96.00;100654.28;5058472;28;19923;-61
2023/04/23 01:38:35;;;;;;;;;;;;;;;8.09;95.81;100646.47;5060450;28;19917;-61
2023/04/23 01:41:00;;;;;;;;;;;;;;;8.07;95.94;100645.81;5059756;28;19917;-61
2023/04/23 01:43:25;;;;;;;;;;;;;;;8.06;96.25;100636.22;5058906;28;19921;-61
2023/04/23 01:45:51;;;;;;;;;;;;;;;8.06;96.03;100642.34;5062228;28;20003;-60
2023/04/23 01:48:16;;;;;;;;;;;;;;;8.08;96.00;100645.66;5056901;28;19921;-61
2023/04/23 01:50:42;;;;;;;;;;;;;;;8.07;95.74;100651.09;5059216;28;19916;-61
2023/04/23 01:53:07;;;;;;;;;;;;;;;8.06;95.93;100647.63;5063251;28;19916;-61
2023/04/23 01:55:33;;;;;;;;;;;;;;;8.06;96.35;100649.44;5062241;28;20371;-61
2023/04/23 01:57:58;;;;;;;;;;;;;;;8.04;96.49;100641.66;5061215;28;19932;-61
2023/04/23 02:00:23;;;;;;;;;;;;;;;8.05;96.71;100642.50;5062666;28;20408;-61
2023/04/23 02:02:51;;;;;;;;;;;;;;;8.07;96.48;100648.44;5059323;28;19917;-61
2023/04/23 02:05:19;;;;;;;;;;;;;;;8.06;96.68;100642.34;5052966;28;19979;-60
2023/04/23 02:07:46;;;;;;;;;;;;;;;8.06;96.29;100642.34;5059269;28;19928;-61
2023/04/23 02:10:11;;;;;;;;;;;;;;;8.05;96.77;100634.56;5063220;28;20481;-61
2023/04/23 02:12:37;;;;;;;;;;;;;;;8.05;97.04;100634.56;5064084;28;19927;-61
2023/04/23 02:15:03;;;;;;;;;;;;;;;8.05;96.89;100635.38;5066022;28;19916;-60
2023/04/23 02:17:28;;;;;;;;;;;;;;;8.05;96.98;100632.75;5064844;28;19916;-61
2023/04/23 02:19:54;;;;;;;;;;;;;;;8.05;97.16;100630.09;5059185;28;19969;-61
2023/04/23 02:22:21;;;;;;;;;;;;;;;8.04;96.91;100628.44;5062208;28;20278;-61
2023/04/23 02:24:46;;;;;;;;;;;;;;;8.05;96.89;100629.28;5069047;28;19916;-61
2023/04/23 02:27:11;;;;;;;;;;;;;;;8.06;96.71;100613.25;5069359;28;19921;-61
2023/04/23 02:29:36;;;;;;;;;;;;;;;8.05;96.88;100623.97;5068989;28;19920;-61
2023/04/23 02:32:02;;;;;;;;;;;;;;;8.03;97.56;100629.44;5058683;28;19916;-61
2023/04/23 02:34:27;;;;;;;;;;;;;;;7.98;97.82;100629.09;5057792;28;19916;-61
2023/04/23 02:36:52;;;;;;;;;;;;;;;7.96;98.05;100635.53;5061242;28;20351;-60
2023/04/23 02:39:18;;;;;;;;;;;;;;;7.95;97.81;100633.88;5062031;28;19916;-61
2023/04/23 02:41:43;;;;;;;;;;;;;;;7.95;97.92;100628.59;5063667;28;20321;-61
2023/04/23 02:44:08;;;;;;;;;;;;;;;7.90;98.24;100626.41;5059518;28;19916;-61
2023/04/23 02:46:35;;;;;;;;;;;;;;;7.86;98.60;100622.44;5059903;28;20340;-61
2023/04/23 02:49:00;;;;;;;;;;;;;;;7.85;98.94;100623.44;5064919;28;20381;-60
2023/04/23 02:51:26;;;;;;;;;;;;;;;7.87;99.01;100625.91;5065319;28;19932;-60
2023/04/23 02:53:51;;;;;;;;;;;;;;;7.87;98.56;100620.63;5066954;28;20408;-61
2023/04/23 02:56:16;;;;;;;;;;;;;;;7.89;98.80;100623.94;5063435;28;19917;-61
2023/04/23 02:58:41;;;;;;;;;;;;;;;7.89;98.36;100619.47;5062580;28;20062;-61
2023/04/23 03:01:06;;;;;;;;;;;;;;;7.92;98.47;100623.63;5061316;28;19916;-61
2023/04/23 03:03:32;;;;;;;;;;;;;;;7.94;98.53;100626.94;5067452;28;20029;-61
2023/04/23 03:05:58;;;;;;;;;;;;;;;7.96;98.23;100623.13;5062152;28;19924;-60
2023/04/23 03:08:23;;;;;;;;;;;;;;;7.98;97.99;100621.16;5058761;28;19982;-61
2023/04/23 03:10:48;;;;;;;;;;;;;;;7.99;98.30;100628.09;5062256;28;20007;-61
2023/04/23 03:13:13;;;;;;;;;;;;;;;7.99;98.03;100617.53;5064151;28;19923;-61
2023/04/23 03:15:39;;;;;;;;;;;;;;;7.93;97.91;100604.13;5064874;28;19916;-60
2023/04/23 03:18:07;;;;;;;;;;;;;;;8.00;97.92;100613.88;5063931;28;20008;-61
2023/04/23 03:20:32;;;;;;;;;;;;;;;8.00;98.17;100600.66;5059691;28;19982;-61
2023/04/23 03:22:57;;;;;;;;;;;;;;;8.02;97.95;100598.69;5062684;28;20049;-61
2023/04/23 03:25:24;;;;;;;;;;;;;;;8.01;98.32;100598.84;5067036;28;20069;-61
2023/04/23 03:27:50;;;;;;;;;;;;;;;8.03;97.84;100599.53;5068768;28;19927;-60
2023/04/23 03:30:15;;;;;;;;;;;;;;;8.04;98.07;100598.53;5067209;28;19916;-61
2023/04/23 03:32:40;;;;;;;;;;;;;;;8.05;98.07;100598.38;5066445;28;19917;-61
2023/04/23 03:35:05;;;;;;;;;;;;;;;8.06;98.03;100605.31;5059308;28;20385;-61
2023/04/23 03:37:30;;;;;;;;;;;;;;;8.06;98.34;100604.47;5064135;28;19927;-61
2023/04/23 03:39:56;;;;;;;;;;;;;;;8.07;98.77;100601.69;5059453;28;19920;-61
2023/04/23 03:42:21;;;;;;;;;;;;;;;8.10;98.65;100595.28;5055284;28;20386;-61
2023/04/23 03:44:46;;;;;;;;;;;;;;;8.15;98.86;100592.13;5062971;28;19916;-61
2023/04/23 03:47:11;;;;;;;;;;;;;;;8.18;98.28;100597.09;5060257;28;20384;-60
2023/04/23 03:49:37;;;;;;;;;;;;;;;8.20;98.58;100598.59;5059466;28;19925;-61
2023/04/23 03:52:02;;;;;;;;;;;;;;;8.22;98.48;100601.91;5065802;28;19917;-61
2023/04/23 03:54:27;;;;;;;;;;;;;;;8.24;98.46;100601.75;5061407;28;20467;-61
2023/04/23 03:56:53;;;;;;;;;;;;;;;8.27;98.86;100596.94;5061643;28;19917;-60
2023/04/23 03:59:18;;;;;;;;;;;;;;;8.30;98.90;100601.91;5065008;28;20357;-61
2023/04/23 04:01:43;;;;;;;;;;;;;;;8.32;98.77;100602.59;5059130;28;19923;-61
2023/04/23 04:04:08;;;;;;;;;;;;;;;8.36;99.19;100601.28;5066382;28;19916;-60
2023/04/23 04:06:34;;;;;;;;;;;;;;;8.38;99.16;100603.78;5063772;28;19927;-61
2023/04/23 04:09:00;;;;;;;;;;;;;;;8.40;99.28;100607.13;5064212;28;19927;-61
2023/04/23 04:11:25;;;;;;;;;;;;;;;8.41;99.68;100611.41;5063201;28;20101;-61
2023/04/23 04:13:51;;;;;;;;;;;;;;;8.43;99.66;100608.63;5063702;28;19917;-61
2023/04/23 04:16:16;;;;;;;;;;;;;;;8.41;100.00;100616.72;5064814;28;19956;-61
2023/04/23 04:18:41;;;;;;;;;;;;;;;8.40;100.00;100601.81;5066856;28;19924;-63
2023/04/23 04:21:06;;;;;;;;;;;;;;;8.41;100.00;100602.66;5060810;28;19981;-62
2023/04/23 04:23:32;;;;;;;;;;;;;;;8.42;100.00;100605.13;5063242;28;20565;-63
2023/04/23 04:25:58;;;;;;;;;;;;;;;8.44;100.00;100605.81;5062968;28;19920;-63
2023/04/23 04:28:24;;;;;;;;;;;;;;;8.45;100.00;100609.28;5065945;28;19922;-62
2023/04/23 04:30:49;;;;;;;;;;;;;;;8.46;100.00;100609.09;5063849;28;19950;-62
2023/04/23 04:33:14;;;;;;;;;;;;;;;8.45;100.00;100607.47;5064356;28;19970;-62
2023/04/23 04:35:40;;;;;;;;;;;;;;;8.45;100.00;100611.91;5062576;28;20404;-63
2023/04/23 04:38:06;;;;;;;;;;;;;;;8.45;100.00;100617.22;5063939;28;19923;-61
2023/04/23 04:40:32;;;;;;;;;;;;;;;8.46;100.00;100617.06;5057546;28;20551;-60
2023/04/23 04:42:58;;;;;;;;;;;;;;;8.48;100.00;100611.59;5062738;28;19916;-61
2023/04/23 04:45:24;;;;;;;;;;;;;;;8.49;100.00;100615.91;5060076;28;19921;-61
2023/04/23 04:47:50;;;;;;;;;;;;;;;8.51;100.00;100612.09;5059125;28;19921;-61
2023/04/23 04:50:15;;;;;;;;;;;;;;;8.54;100.00;100595.06;5062192;28;19917;-60
2023/04/23 04:52:41;;;;;;;;;;;;;;;8.54;100.00;100600.34;5062397;28;19917;-61
2023/04/23 04:55:06;;;;;;;;;;;;;;;8.54;100.00;100595.88;5060556;28;19917;-61
2023/04/23 04:57:31;;;;;;;;;;;;;;;8.55;100.00;100600.19;5059273;28;20314;-60
2023/04/23 04:59:56;;;;;;;;;;;;;;;8.56;100.00;100596.53;5055755;28;19927;-61
2023/04/23 05:02:22;;;;;;;;;;;;;;;8.58;100.00;100601.69;5057285;28;20905;-61
2023/04/23 05:04:47;;;;;;;;;;;;;;;8.60;100.00;100610.28;5059262;28;19916;-61
2023/04/23 05:07:12;;;;;;;;;;;;;;;8.58;100.00;100612.25;5063195;28;19920;-61
2023/04/23 05:09:38;;;;;;;;;;;;;;;8.57;100.00;100608.78;5061770;28;20428;-61
2023/04/23 05:12:06;;;;;;;;;;;;;;;8.56;100.00;100617.72;5056277;28;19964;-61
2023/04/23 05:14:31;;;;;;;;;;;;;;;8.57;100.00;100613.25;5060729;28;19920;-60
2023/04/23 05:16:56;;;;;;;;;;;;;;;8.57;100.00;100603.50;5064200;28;19924;-61
2023/04/23 05:19:22;;;;;;;;;;;;;;;8.58;100.00;100604.31;5059514;28;20400;-61
2023/04/23 05:21:47;;;;;;;;;;;;;;;8.61;100.00;100601.34;5062948;28;19923;-60
2023/04/23 05:24:12;;;;;;;;;;;;;;;8.63;100.00;100608.13;5065700;28;19924;-61
2023/04/23 05:26:38;;;;;;;;;;;;;;;8.65;100.00;100607.97;5056829;28;20390;-61
2023/04/23 05:29:03;;;;;;;;;;;;;;;8.64;100.00;100614.25;5059366;28;19920;-61
2023/04/23 05:31:28;;;;;;;;;;;;;;;8.67;100.00;100616.56;5058956;28;19932;-61
2023/04/23 05:33:53;;;;;;;;;;;;;;;8.71;100.00;100612.63;5063960;28;19916;-61
2023/04/23 05:36:18;;;;;;;;;;;;;;;8.76;100.00;100615.59;5058917;28;20298;-61
2023/04/23 05:38:44;;;;;;;;;;;;;;;8.79;100.00;100607.34;5063332;28;19917;-61
2023/04/23 05:41:09;;;;;;;;;;;;;;;8.82;100.00;100617.59;5056896;28;19917;-61
2023/04/23 05:43:34;;;;;;;;;;;;;;;8.85;100.00;100611.97;5057271;28;19944;-60
2023/04/23 05:45:59;;;;;;;;;;;;;;;8.87;100.00;100607.31;5059584;28;19942;-61
2023/04/23 05:48:25;;;;;;;;;;;;;;;8.91;100.00;100619.25;5062663;28;19920;-60
2023/04/23 05:50:50;;;;;;;;;;;;;;;8.95;100.00;100612.63;5062119;28;19920;-62
2023/04/23 05:53:15;;;;;;;;;;;;;;;8.99;100.00;100613.13;5060453;28;19925;-61
2023/04/23 05:55:40;;;;;;;;;;;;;;;9.03;100.00;100613.63;5059841;28;19917;-61
2023/04/23 05:58:05;;;;;;;;;;;;;;;9.07;100.00;100612.31;5061234;28;19994;-61
2023/04/23 06:00:31;;;;;;;;;;;;;;;9.12;100.00;100607.31;5056562;28;19917;-59
2023/04/23 06:02:56;;;;;;;;;;;;;;;9.17;100.00;100605.00;5058794;28;19943;-61
2023/04/23 06:05:21;;;;;;;;;;;;;;;9.24;100.00;100608.63;5055013;28;19925;-61
2023/04/23 06:07:47;;;;;;;;;;;;;;;9.27;100.00;100608.31;5063585;28;19951;-61
2023/04/23 06:10:12;;;;;;;;;;;;;;;9.30;100.00;100608.81;5061326;28;19928;-61
2023/04/23 06:12:38;;;;;;;;;;;;;;;9.34;100.00;100609.28;5061826;28;19924;-60
2023/04/23 06:15:04;;;;;;;;;;;;;;;9.41;100.00;100604.97;5062567;28;19917;-60
2023/04/23 06:17:30;;;;;;;;;;;;;;;9.48;100.00;100605.94;5057742;28;20294;-61
2023/04/23 06:19:55;;;;;;;;;;;;;;;9.58;100.00;100608.44;5064551;28;19917;-61
2023/04/23 06:22:20;;;;;;;;;;;;;;;9.65;100.00;100600.59;5055024;28;19917;-61
2023/04/23 06:24:45;;;;;;;;;;;;;;;9.72;100.00;100593.63;5061215;28;19917;-60
2023/04/23 06:27:11;;;;;;;;;;;;;;;9.78;100.00;100588.44;5058650;28;19927;-61
2023/04/23 06:29:36;;;;;;;;;;;;;;;9.85;100.00;100584.13;5068052;28;19920;-60
2023/04/23 06:32:02;;;;;;;;;;;;;;;9.93;100.00;100575.31;5063473;28;20507;-61
2023/04/23 06:34:27;;;;;;;;;;;;;;;10.02;100.00;100576.91;5065907;28;19935;-60
2023/04/23 06:36:53;;;;;;;;;;;;;;;10.10;100.00;100576.03;5059370;28;19916;-60
2023/04/23 06:39:18;;;;;;;;;;;;;;;10.17;100.00;100574.38;5063896;28;19924;-61
2023/04/23 06:41:43;;;;;;;;;;;;;;;10.24;100.00;100568.22;5058508;28;19916;-61
2023/04/23 06:44:08;;;;;;;;;;;;;;;10.32;100.00;100582.44;5062319;28;19940;-61
2023/04/23 06:46:33;;;;;;;;;;;;;;;10.37;99.97;100574.75;5063989;28;20370;-61
2023/04/23 06:48:58;;;;;;;;;;;;;;;10.44;99.65;100573.06;5060275;28;20039;-61
2023/04/23 06:51:24;;;;;;;;;;;;;;;10.50;99.44;100569.72;5064800;28;19931;-61
2023/04/23 06:53:49;;;;;;;;;;;;;;;10.57;98.97;100565.34;5065286;28;20393;-60
2023/04/23 06:56:15;;;;;;;;;;;;;;;10.65;98.77;100570.56;5062755;28;19948;-61
2023/04/23 06:58:40;;;;;;;;;;;;;;;10.72;98.40;100568.06;5065019;28;20310;-60
2023/04/23 07:01:06;;;;;;;;;;;;;;;10.78;98.03;100570.81;5059559;28;19920;-61
2023/04/23 07:03:31;;;;;;;;;;;;;;;10.85;98.35;100571.75;5062638;28;19952;-61
2023/04/23 07:05:57;;;;;;;;;;;;;;;10.92;97.93;100571.03;5059735;28;20070;-61
2023/04/23 07:08:22;;;;;;;;;;;;;;;11.01;98.22;100577.94;5063855;28;19930;-61
2023/04/23 07:10:47;;;;;;;;;;;;;;;11.07;97.81;100558.63;5063843;28;19917;-61
2023/04/23 07:13:12;;;;;;;;;;;;;;;11.12;97.25;100557.06;5063938;28;19924;-60
2023/04/23 07:15:38;;;;;;;;;;;;;;;11.18;97.15;100566.97;5055390;28;20587;-61
2023/04/23 07:18:03;;;;;;;;;;;;;;;11.23;96.67;100569.09;5064222;28;19917;-61
2023/04/23 07:20:29;;;;;;;;;;;;;;;11.28;95.70;100564.06;5059382;28;20333;-61
2023/04/23 07:22:54;;;;;;;;;;;;;;;11.34;95.56;100571.31;5058038;28;19921;-61
2023/04/23 07:25:21;;;;;;;;;;;;;;;11.42;95.46;100565.91;5062060;28;19964;-61
2023/04/23 07:27:46;;;;;;;;;;;;;;;11.49;95.12;100553.50;5059417;28;19920;-61
2023/04/23 07:30:11;;;;;;;;;;;;;;;11.58;94.71;100564.09;5063291;28;20025;-61
2023/04/23 07:32:37;;;;;;;;;;;;;;;11.62;93.43;100557.38;5062851;28;20003;-61
2023/04/23 07:35:03;;;;;;;;;;;;;;;11.66;93.31;100559.47;5060368;28;19921;-61
2023/04/23 07:37:29;;;;;;;;;;;;;;;11.73;93.09;100563.06;5062808;28;19944;-60
2023/04/23 07:39:54;;;;;;;;;;;;;;;11.77;92.46;100552.84;5060691;28;20019;-61
2023/04/23 07:42:19;;;;;;;;;;;;;;;11.80;91.77;100557.84;5057988;28;19970;-60
2023/04/23 07:44:44;;;;;;;;;;;;;;;11.88;91.89;100552.44;5066382;28;19920;-61
2023/04/23 07:47:10;;;;;;;;;;;;;;;11.98;92.01;100550.28;5055280;28;20398;-61
2023/04/23 07:49:35;;;;;;;;;;;;;;;12.07;91.99;100551.00;5055751;28;19923;-61
2023/04/23 07:52:00;;;;;;;;;;;;;;;12.12;91.18;100543.28;5064191;28;19920;-61
2023/04/23 07:54:25;;;;;;;;;;;;;;;12.17;90.35;100545.41;5055959;28;19916;-61
2023/04/23 07:56:50;;;;;;;;;;;;;;;12.24;90.96;100544.44;5064856;28;19951;-60
2023/04/23 07:59:16;;;;;;;;;;;;;;;12.31;90.67;100540.00;5060433;28;20406;-61
2023/04/23 08:01:41;;;;;;;;;;;;;;;12.39;90.77;100539.88;5058772;28;19916;-60
2023/04/23 08:04:06;;;;;;;;;;;;;;;12.48;90.97;100545.94;5063155;28;19928;-61
2023/04/23 08:06:34;;;;;;;;;;;;;;;12.56;90.60;100548.47;5059242;28;20591;-61
2023/04/23 08:08:59;;;;;;;;;;;;;;;12.59;89.08;100539.25;5062041;28;19925;-61
2023/04/23 08:11:24;;;;;;;;;;;;;;;12.61;88.20;100543.38;5055843;28;20461;-61
2023/04/23 08:13:49;;;;;;;;;;;;;;;12.68;88.64;100538.94;5059321;28;20045;-61
2023/04/23 08:16:15;;;;;;;;;;;;;;;12.74;88.57;100540.03;5056957;28;19923;-61
2023/04/23 08:18:40;;;;;;;;;;;;;;;12.75;87.77;100539.00;5063551;28;19917;-60
2023/04/23 08:21:05;;;;;;;;;;;;;;;12.77;87.23;100538.81;5064788;28;19958;-61
2023/04/23 08:23:30;;;;;;;;;;;;;;;12.83;86.65;100544.19;5062475;28;19916;-60
2023/04/23 08:25:55;;;;;;;;;;;;;;;12.88;86.08;100535.63;5061942;28;20452;-61
2023/04/23 08:28:21;;;;;;;;;;;;;;;12.92;85.90;100534.22;5059476;28;20023;-61
2023/04/23 08:30:46;;;;;;;;;;;;;;;12.95;85.00;100539.16;5067462;28;19916;-61
2023/04/23 08:33:11;;;;;;;;;;;;;;;13.00;85.41;100526.06;5060835;28;19925;-61
2023/04/23 08:35:37;;;;;;;;;;;;;;;13.10;85.62;100515.91;5060322;28;19923;-61
2023/04/23 08:38:02;;;;;;;;;;;;;;;13.24;85.56;100522.97;5060975;28;20377;-60
2023/04/23 08:40:29;;;;;;;;;;;;;;;13.33;85.59;100524.50;5059102;28;19928;-61
2023/04/23 08:43:00;;;;;;;;;;;;;;;13.44;84.75;100531.09;5062273;28;19916;-61
2023/04/23 08:45:25;;;;;;;;;;;;;;;13.48;83.86;100515.53;5052790;28;20359;-61
2023/04/23 08:47:51;;;;;;;;;;;;;;;13.59;84.30;100523.81;5061070;28;19925;-61
2023/04/23 08:50:17;;;;;;;;;;;;;;;13.67;83.01;100528.16;5060661;28;19923;-61
2023/04/23 08:52:45;;;;;;;;;;;;;;;13.71;82.12;100528.59;5062558;28;20033;-61
2023/04/23 08:55:11;;;;;;;;;;;;;;;13.80;81.14;100530.03;5056920;28;19917;-61
2023/04/23 08:57:40;;;;;;;;;;;;;;;13.84;80.12;100524.09;5060708;28;19916;-61
2023/04/23 09:00:06;;;;;;;;;;;;;;;13.90;79.03;100522.50;5060348;28;20454;-61
2023/04/23 09:02:33;;;;;;;;;;;;;;;13.90;78.52;100511.84;5059577;28;19925;-61
2023/04/23 09:04:58;;;;;;;;;;;;;;;13.99;79.45;100520.47;5058112;28;20373;-60
2023/04/23 09:07:24;;;;;;;;;;;;;;;14.04;78.00;100515.34;5065827;28;19920;-61
2023/04/23 09:09:49;;;;;;;;;;;;;;;14.08;77.58;100519.25;5063120;28;20431;-61
2023/04/23 09:12:15;;;;;;;;;;;;;;;14.15;77.54;100517.44;5055642;28;19924;-60
2023/04/23 09:14:40;;;;;;;;;;;;;;;14.21;76.76;100514.78;5062672;28;19940;-60
2023/04/23 09:17:05;;;;;;;;;;;;;;;14.32;77.02;100512.53;5062749;28;19920;-61
2023/04/23 09:19:31;;;;;;;;;;;;;;;14.51;76.15;100519.81;5064441;28;20321;-61
2023/04/23 09:21:57;;;;;;;;;;;;;;;14.65;75.91;100520.63;5056023;28;20398;-61
2023/04/23 09:24:22;;;;;;;;;;;;;;;14.72;74.98;100516.09;5059047;28;20011;-61
2023/04/23 09:26:48;;;;;;;;;;;;;;;14.84;74.95;100514.47;5060882;28;20075;-61
2023/04/23 09:29:22;;;;;;;;;;;;;;;14.93;74.46;100507.88;5057286;28;20370;-60
2023/04/23 09:31:48;;;;;;;;;;;;;;;15.04;73.24;100509.94;5063813;28;19924;-61
2023/04/23 09:34:17;;;;;;;;;;;;;;;15.10;71.51;100505.59;5065672;28;19923;-61
2023/04/23 09:36:44;;;;;;;;;;;;;;;15.00;70.47;100507.84;5067787;28;19924;-62
2023/04/23 09:39:12;;;;;;;;;;;;;;;15.05;71.09;100500.06;5066464;28;19920;-61
2023/04/23 09:41:38;;;;;;;;;;;;;;;15.14;69.36;100504.97;5063525;28;19917;-61
2023/04/23 09:44:03;;;;;;;;;;;;;;;15.20;68.52;100497.97;5061779;28;19916;-60
2023/04/23 09:46:32;;;;;;;;;;;;;;;15.30;67.56;100508.22;5067029;28;20374;-61
2023/04/23 09:48:57;;;;;;;;;;;;;;;15.28;66.29;100494.22;5062061;28;19916;-61
2023/04/23 09:51:24;;;;;;;;;;;;;;;15.37;66.64;100495.66;5063309;28;19928;-61
2023/04/23 09:53:49;;;;;;;;;;;;;;;15.50;66.18;100500.97;5061882;28;19921;-60
2023/04/23 09:56:14;;;;;;;;;;;;;;;15.52;64.38;100492.72;5062671;28;20432;-61
2023/04/23 09:58:40;;;;;;;;;;;;;;;15.51;64.94;100483.88;5070186;28;20305;-61
2023/04/23 10:01:06;;;;;;;;;;;;;;;15.59;65.33;100486.34;5062896;28;19920;-61
2023/04/23 10:03:31;;;;;;;;;;;;;;;15.56;64.22;100485.91;5067201;28;19917;-61
2023/04/23 10:05:57;;;;;;;;;;;;;;;15.58;64.81;100486.53;5066361;28;20306;-61
2023/04/23 10:08:22;;;;;;;;;;;;;;;15.55;63.68;100479.75;5064577;28;20027;-61
2023/04/23 10:10:48;;;;;;;;;;;;;;;15.50;63.47;100477.72;5062639;28;20004;-61
2023/04/23 10:13:13;;;;;;;;;;;;;;;15.54;63.72;100483.44;5062648;28;19924;-61
2023/04/23 10:15:38;;;;;;;;;;;;;;;15.62;63.87;100475.25;5068348;28;19917;-61
2023/04/23 10:18:04;;;;;;;;;;;;;;;15.70;63.70;100472.31;5067041;28;20079;-61
2023/04/23 10:20:29;;;;;;;;;;;;;;;15.76;63.84;100476.81;5066544;28;19920;-61
2023/04/23 10:22:56;;;;;;;;;;;;;;;15.75;63.00;100477.03;5064974;28;19923;-61
2023/04/23 10:25:22;;;;;;;;;;;;;;;15.69;61.93;100480.56;5063168;28;19928;-61
2023/04/23 10:27:48;;;;;;;;;;;;;;;15.66;62.21;100478.31;5059831;28;20126;-61
2023/04/23 10:30:13;;;;;;;;;;;;;;;15.66;62.47;100472.94;5062596;28;20646;-61
2023/04/23 10:32:39;;;;;;;;;;;;;;;15.67;62.44;100459.34;5062365;28;20106;-61
2023/04/23 10:35:05;;;;;;;;;;;;;;;15.75;62.29;100461.78;5065565;28;19923;-61
2023/04/23 10:37:31;;;;;;;;;;;;;;;15.85;62.91;100465.84;5062893;28;19924;-61
2023/04/23 10:40:00;;;;;;;;;;;;;;;15.87;62.04;100467.28;5066315;28;19917;-61
2023/04/23 10:42:25;;;;;;;;;;;;;;;15.84;61.77;100458.84;5063776;28;19916;-61
2023/04/23 10:44:54;;;;;;;;;;;;;;;15.85;61.52;100449.78;5067331;28;20787;-60
2023/04/23 10:47:21;;;;;;;;;;;;;;;15.90;62.20;100450.81;5063697;28;20382;-61
2023/04/23 10:49:47;;;;;;;;;;;;;;;15.93;61.86;100458.41;5067514;28;19916;-61
2023/04/23 10:52:14;;;;;;;;;;;;;;;15.86;61.97;100451.41;5062617;28;20449;-61
2023/04/23 10:54:40;;;;;;;;;;;;;;;15.80;62.01;100443.22;5066422;28;19916;-61
2023/04/23 10:57:06;;;;;;;;;;;;;;;15.73;61.97;100439.75;5057607;28;20397;-61
2023/04/23 10:59:33;;;;;;;;;;;;;;;15.67;61.95;100434.44;5061870;28;20034;-61
2023/04/23 11:02:05;;;;;;;;;;;;;;;15.63;62.04;100443.94;5064238;28;19970;-61
2023/04/23 11:04:31;;;;;;;;;;;;;;;15.52;61.66;100433.84;5063373;28;19936;-61
2023/04/23 11:07:04;;;;;;;;;;;;;;;15.49;62.57;100429.75;5058244;28;19929;-61
2023/04/23 11:09:30;;;;;;;;;;;;;;;15.48;62.96;100428.91;5058644;28;20435;-61
2023/04/23 11:11:56;;;;;;;;;;;;;;;15.55;63.27;100420.03;5064041;28;19916;-61
2023/04/23 11:14:32;;;;;;;;;;;;;;;15.57;62.69;100429.50;5067546;28;20389;-61
2023/04/23 11:16:57;;;;;;;;;;;;;;;15.56;62.73;100424.34;5064317;28;19916;-61
2023/04/23 11:19:22;;;;;;;;;;;;;;;15.56;62.98;100413.66;5063600;28;20856;-61
2023/04/23 11:21:53;;;;;;;;;;;;;;;15.60;63.31;100412.22;5067217;28;19943;-61
2023/04/23 11:24:20;;;;;;;;;;;;;;;15.59;63.22;100399.88;5065749;28;19931;-60
2023/04/23 11:26:47;;;;;;;;;;;;;;;15.65;63.54;100399.03;5064719;28;19921;-61
2023/04/23 11:29:14;;;;;;;;;;;;;;;15.61;62.56;100404.00;5064111;28;19917;-61
2023/04/23 11:31:39;;;;;;;;;;;;;;;15.53;62.35;100401.50;5065882;28;19912;-60
2023/04/23 11:34:05;;;;;;;;;;;;;;;15.58;63.07;100390.16;5066839;28;19916;-61
2023/04/23 11:36:31;;;;;;;;;;;;;;;15.64;61.80;100386.69;5061322;28;20297;-61
2023/04/23 11:38:57;;;;;;;;;;;;;;;15.68;62.58;100382.53;5062692;28;20437;-61
2023/04/23 11:41:22;;;;;;;;;;;;;;;15.84;63.13;100373.97;5059434;28;19920;-60
2023/04/23 11:43:47;;;;;;;;;;;;;;;16.02;63.25;100370.56;5061035;28;19909;-61
2023/04/23 11:46:13;;;;;;;;;;;;;;;16.09;62.76;100371.34;5060007;28;19924;-61
2023/04/23 11:48:38;;;;;;;;;;;;;;;16.14;62.81;100362.63;5055839;28;19965;-61
2023/04/23 11:51:04;;;;;;;;;;;;;;;16.13;62.82;100366.34;5063983;28;20033;-61
2023/04/23 11:53:29;;;;;;;;;;;;;;;16.09;62.13;100358.75;5068597;28;20113;-61
2023/04/23 11:55:54;;;;;;;;;;;;;;;16.00;62.08;100348.53;5060793;28;20390;-61
2023/04/23 11:58:19;;;;;;;;;;;;;;;15.81;60.53;100361.03;5067622;28;19919;-60
2023/04/23 12:00:44;;;;;;;;;;;;;;;15.53;59.90;100358.69;5068169;28;19963;-61
2023/04/23 12:03:12;;;;;;;;;;;;;;;15.54;61.34;100351.47;5060549;28;19919;-61
2023/04/23 12:05:42;;;;;;;;;;;;;;;15.67;61.13;100354.94;5054859;28;19921;-60
2023/04/23 12:08:11;;;;;;;;;;;;;;;15.77;60.49;100354.47;5059203;28;19921;-61
2023/04/23 12:10:49;;;;;;;;;;;;;;;15.92;60.63;100343.47;5060335;28;19912;-61
2023/04/23 12:13:19;;;;;;;;;;;;;;;16.16;60.66;100334.59;5057977;28;20003;-61
2023/04/23 12:15:46;;;;;;;;;;;;;;;16.29;60.40;100336.34;5067570;28;19928;-61
2023/04/23 12:18:11;;;;;;;;;;;;;;;16.27;60.50;100317.81;5063833;28;19917;-61
2023/04/23 12:20:36;;;;;;;;;;;;;;;16.40;61.53;100314.16;5067015;28;19970;-61
2023/04/23 12:23:07;;;;;;;;;;;;;;;16.53;61.40;100316.72;5061907;28;19924;-61
2023/04/23 12:25:33;;;;;;;;;;;;;;;16.48;60.94;100313.91;5060326;28;20539;-61
2023/04/23 12:27:59;;;;;;;;;;;;;;;16.36;61.17;100313.78;5063702;28;19924;-60
2023/04/23 12:30:28;;;;;;;;;;;;;;;16.28;60.96;100300.69;5064856;28;20431;-61
2023/04/23 12:32:58;;;;;;;;;;;;;;;16.16;60.52;100296.25;5064133;28;19970;-61